Terminal Aerodrome Forecast
Issued by NWS Blacksburg, VA

Current Version | Previous Version | Graphics & Text | Print | Product List | Glossary On
Versions: 1 2 3 4 5 6 7 8 9 10 11 12 13 14 15 16 17 18 19 20 21 22 23 24 25 26 27 28
000
FTUS41 KRNK 201720
TAFBLF
TAF
KBLF 201720Z 2018/2118 25006KT P6SM -DZ OVC015
     FM202300 23004KT P6SM -DZ BKN025
     FM210000 21004KT 2SM -DZ BR BKN030
     FM211200 VRB03KT P6SM BKN060=

USA.gov is the U.S. government's official web portal to all federal, state and local government web resources and services.